• Join FlightAware (Why Join?)
  • Login
  • US Flag 
12:41AM EDT


 

Airport Tracker/Info


-or-


 

Live Flight TrackerFlight Track Log ✈ KAP444 ✈ 05-May-2013 ✈ KOGS - KALB

Flight Track Log - Related Links

Times and Time Zones

All times are in EDT time to prevent confusion due to time zone crossing. See the KAP444 flight status page for this flight to view local times or setup timezone preferences in your user account.

Time Position Orientation Groundspeed Altitude Reporting Facility
EDT Latitude Longitude Course Direction KTS MPH feet Rate Location/Type
05:35PM 43.5708 -74.4403 148° Southeast 169 194 7,600  Level Boston Center
05:36PM 43.5317 -74.4103 151° Southeast 169 194 7,600  Level Boston Center
05:37PM 43.4928 -74.3778 149° Southeast 169 194 7,600  Level Boston Center
05:37PM 43.4700 -74.3656 159° South 166 191 7,600  Level Boston Center
05:38PM 43.4536 -74.3478 142° Southeast 169 194 7,600  Level Boston Center
05:38PM 43.4392 -74.3417 163° South 164 189 7,600  Level Boston Center
05:39PM 43.4167 -74.3122 136° Southeast 169 194 7,600  Level Boston Center
05:39PM 43.4022 -74.2975 143° Southeast 162 186 7,600  Level Boston Center
05:40PM 43.4334 -74.3764 148° Southeast  Level Estimated
05:40PM 43.3797 -74.2742 143° Southeast 164 189 7,600  Level Boston Center
05:40PM 43.3653 -74.2650 155° Southeast 162 186 7,500 -360 Descending Boston Center
05:41PM 43.3283 -74.2239 141° Southeast 170 196 7,100 -360 Descending Boston Center
05:42PM 43.3039 -74.1975 142° Southeast 171 197 7,000 -240 Descending Boston Center
05:42PM 43.2894 -74.1858 150° Southeast 175 201 6,900 -240 Descending Boston Center
05:43PM 43.2628 -74.1592 144° Southeast 171 197 6,800 -360 Descending Boston Center
05:43PM 43.2506 -74.1475 145° Southeast 176 203 6,600 -540 Descending Boston Center
05:44PM 43.2239 -74.1183 141° Southeast 177 204 6,300 -420 Descending Boston Center
05:44PM 43.2114 -74.1067 146° Southeast 181 208 6,200 -540 Descending Boston Center
05:45PM 43.1828 -74.0772 143° Southeast 182 209 5,800 -600 Descending Boston Center
05:45PM 43.1703 -74.0656 146° Southeast 184 212 5,600 -540 Descending Boston Center
05:46PM 43.1436 -74.0394 144° Southeast 182 209 5,300 -480 Descending Boston Center
05:46PM 43.1356 -74.0278 133° Southeast 176 203 5,200 -600 Descending Boston Center
05:47PM 43.1047 -73.9956 143° Southeast 177 204 4,700 -600 Descending Boston Center
05:47PM 43.0983 -73.9897 146° Southeast 172 198 4,600 -540 Descending Boston Center
05:48PM 43.0678 -73.9550 140° Southeast 177 204 4,200 -600 Descending Boston Center
05:48PM 43.0614 -73.9461 135° Southeast 173 199 4,000 -420 Descending Boston Center
05:49PM 43.0350 -73.9086 134° Southeast 177 204 3,800 -300 Descending Boston Center
05:49PM 43.0247 -73.8942 134° Southeast 171 197 3,700 -300 Descending Boston Center
05:50PM 43.0022 -73.8653 137° Southeast 177 204 3,500 -300 Descending Boston Center
05:50PM 42.9897 -73.8508 140° Southeast 165 190 3,400 -420 Descending Boston Center
05:51PM 42.9650 -73.8247 142° Southeast 172 198 3,100 -420 Descending Boston Center
05:51PM 42.9486 -73.8131 152° Southeast 168 193 3,000 -240 Descending Boston Center
05:52PM 42.9281 -73.7869 137° Southeast 172 198 2,900 -300 Descending Boston Center
05:52PM 42.9136 -73.7725 144° Southeast 168 193 2,700 -360 Descending Boston Center
05:53PM 42.8742 -73.7575 164° South 167 192 2,400 -300 Descending Boston Center
05:54PM 42.8342 -73.7906 211° Southwest 142 163 2,100 -600 Descending Boston Center
05:56PM 42.7835 -73.7953 184° South  Level FlightAware Approximate
05:56PM 42.7694 -73.8089 184° South 111 128 600  Level Boston Center
05:59PM 42.7491 -73.8020 180° South  Level Estimated
06:26PM 42.7131 -73.8106 193° South 111 128 1,400  Level Boston Center
06:27PM 42.7106 -73.8528 265° West 130 150 2,400 900 Climbing Boston Center
06:28PM 42.7414 -73.8875 320° Northwest 143 165 3,300 720 Climbing Boston Center
06:29PM 42.7722 -73.9167 325° Northwest 137 158 3,900 600 Climbing Boston Center
06:30PM 42.8053 -73.9428 330° Northwest 141 162 4,600 600 Climbing Boston Center
06:31PM 42.8422 -73.9778 325° Northwest 138 159 5,300 480 Climbing Boston Center
06:32PM 42.8711 -74.0011 329° Northwest 144 166 5,600 540 Climbing Boston Center
06:33PM 42.9122 -74.0361 328° Northwest 147 169 6,400 660 Climbing Boston Center
06:34PM 42.9431 -74.0653 325° Northwest 140 161 7,000 660 Climbing Boston Center
06:35PM 42.9719 -74.0917 326° Northwest 136 157 7,700 600 Climbing Boston Center
06:36PM 42.9967 -74.1122 329° Northwest 131 151 8,100 420 Climbing Boston Center
06:37PM 43.0233 -74.1383 324° Northwest 136 157 8,500 240 Climbing Boston Center
06:38PM 43.0603 -74.1792 321° Northwest 155 178 8,600  Climbing Boston Center
06:39PM 43.0953 -74.2086 328° Northwest 167 192 8,600  Level Boston Center
06:40PM 43.1383 -74.2497 325° Northwest 167 192 8,600  Level Boston Center
06:41PM 43.1756 -74.2792 330° Northwest 167 192 8,600  Level Boston Center
06:42PM 43.2147 -74.3061 333° Northwest 167 192 8,600  Level Boston Center
06:43PM 43.2600 -74.3361 334° Northwest 167 192 8,600 -60 Level Boston Center
06:44PM 43.3053 -74.3744 328° Northwest 167 192 8,500 -60 Descending Boston Center
06:45PM 43.3403 -74.4014 331° Northwest 167 192 8,500  Level Boston Center
06:46PM 43.3833 -74.4369 329° Northwest 161 185 8,500  Level Boston Center
06:47PM 43.4203 -74.4725 325° Northwest 161 185 8,500  Level Boston Center
06:48PM 43.4614 -74.4967 337° Northwest 161 185 8,500  Level Boston Center
06:49PM 43.5006 -74.5239 333° Northwest 161 185 8,500  Level Boston Center
06:50PM 43.5394 -74.5567 329° Northwest 161 185 8,500  Level Boston Center
06:51PM 43.5889 -74.5928 332° Northwest 167 192 8,500  Level Boston Center
06:52PM 43.6239 -74.6169 333° Northwest 167 192 8,500  Level Boston Center
06:53PM 43.6711 -74.6561 329° Northwest 167 192 8,500  Level Boston Center
06:55PM 43.7511 -74.7167 331° Northwest 167 192 8,500  Level Boston Center
06:56PM 43.7942 -74.7528 329° Northwest 167 192 8,500  Level Boston Center
06:57PM 43.8353 -74.7831 332° Northwest 167 192 8,500 -60 Level Boston Center
06:58PM 43.8761 -74.8164 330° Northwest 167 192 8,400 -60 Descending Boston Center
06:59PM 43.9214 -74.8497 332° Northwest 172 198 8,400  Level Boston Center
07:02PM 44.0483 -74.9561 329° Northwest 177 204 8,400 -120 Level Boston Center
07:03PM 44.0853 -74.9836 332° Northwest 177 204 8,000 -420 Descending Boston Center
07:04PM 44.1406 -75.0264 331° Northwest 182 209 7,600 -420 Descending Boston Center
07:05PM 44.1878 -75.0633 331° Northwest 182 209 7,200 -420 Descending Boston Center
07:06PM 44.2328 -75.1000 330° Northwest 182 209 6,800 -480 Descending Boston Center
07:07PM 44.2778 -75.1339 332° Northwest 182 209 6,300 -540 Descending Boston Center
07:08PM 44.3206 -75.1708 328° Northwest 182 209 5,800 -600 Descending Boston Center
07:09PM 44.3656 -75.2047 332° Northwest 182 209 5,100 -600 Descending Boston Center
07:10PM 44.4108 -75.2358 334° Northwest 182 209 4,700 -540 Descending Boston Center
07:11PM 44.4536 -75.2700 330° Northwest 177 204 4,100 -600 Descending Boston Center